createdAt,value
2024-05-09T00:00:46.421Z,3.45
2024-05-09T00:03:34.034Z,3.67
2024-05-09T00:06:01.615Z,4.40
2024-05-09T00:08:29.352Z,4.43
2024-05-09T00:10:56.662Z,4.88
2024-05-09T00:13:24.200Z,5.00
2024-05-09T00:15:51.378Z,5.38
2024-05-09T00:18:19.094Z,5.18
2024-05-09T00:20:46.345Z,4.70
2024-05-09T00:23:14.229Z,6.00
2024-05-09T00:25:45.453Z,6.88
2024-05-09T00:28:14.221Z,5.25
2024-05-09T00:30:41.788Z,5.25
2024-05-09T00:33:10.860Z,5.88
2024-05-09T00:35:39.816Z,5.45
2024-05-09T00:38:07.628Z,5.40
2024-05-09T00:40:41.021Z,5.80
2024-05-09T00:43:12.397Z,5.85
2024-05-09T00:45:40.649Z,5.05
2024-05-09T00:48:11.084Z,6.18
2024-05-09T00:50:42.508Z,6.10
2024-05-09T00:53:16.654Z,5.65
2024-05-09T00:55:45.066Z,6.18
2024-05-09T00:58:18.373Z,5.93
2024-05-09T01:00:45.625Z,5.78
2024-05-09T01:03:14.352Z,5.72
2024-05-09T01:05:45.196Z,5.88
2024-05-09T01:08:13.420Z,5.55
2024-05-09T01:10:43.720Z,5.63
2024-05-09T01:13:12.874Z,6.07
2024-05-09T01:15:40.376Z,6.57
2024-05-09T01:18:12.096Z,5.88
2024-05-09T01:20:43.417Z,5.30
2024-05-09T01:23:15.370Z,5.95
2024-05-09T01:25:44.819Z,5.60
2024-05-09T01:28:12.823Z,5.18
2024-05-09T01:30:39.969Z,5.57
2024-05-09T01:33:09.765Z,5.35
2024-05-09T01:35:41.320Z,5.10
2024-05-09T01:38:12.802Z,5.70
2024-05-09T01:40:40.605Z,5.28
2024-05-09T01:43:09.635Z,5.47
2024-05-09T01:45:38.641Z,5.60
2024-05-09T01:48:07.165Z,5.25
2024-05-09T01:50:39.594Z,4.75
2024-05-09T01:53:15.151Z,5.45
2024-05-09T01:55:43.373Z,5.60
2024-05-09T01:58:11.294Z,5.32
2024-05-09T02:00:42.374Z,5.50
2024-05-09T02:03:16.086Z,6.00
2024-05-09T02:05:47.059Z,6.00
2024-05-09T02:08:22.373Z,5.50
2024-05-09T02:10:50.762Z,6.32
2024-05-09T02:13:18.770Z,5.93
2024-05-09T02:15:46.109Z,5.93
2024-05-09T02:18:14.256Z,6.35
2024-05-09T02:20:42.793Z,6.10
2024-05-09T02:23:11.393Z,7.15
2024-05-09T02:25:38.661Z,6.65
2024-05-09T02:28:06.820Z,6.30
2024-05-09T02:30:39.922Z,6.60
2024-05-09T02:33:12.301Z,5.85
2024-05-09T02:35:43.007Z,6.43
2024-05-09T02:38:12.316Z,6.00
2024-05-09T02:40:40.424Z,6.20
2024-05-09T02:43:10.831Z,5.63
2024-05-09T02:45:42.067Z,6.30
2024-05-09T02:48:13.721Z,6.38
2024-05-09T02:50:41.884Z,6.22
2024-05-09T02:53:13.155Z,7.00
2024-05-09T02:55:42.026Z,6.35
2024-05-09T02:58:10.823Z,6.30
2024-05-09T03:00:41.593Z,6.75
2024-05-09T03:03:15.136Z,6.45
2024-05-09T03:05:44.763Z,5.43
2024-05-09T03:08:13.188Z,5.88
2024-05-09T03:10:40.463Z,6.57
2024-05-09T03:13:08.781Z,5.88
2024-05-09T03:15:36.876Z,5.95
2024-05-09T03:18:06.969Z,6.40
2024-05-09T03:20:36.101Z,6.38
2024-05-09T03:23:06.331Z,6.28
2024-05-09T03:25:34.051Z,6.35
2024-05-09T03:28:01.739Z,5.38
2024-05-09T03:30:39.033Z,6.85
2024-05-09T03:33:22.761Z,6.57
2024-05-09T03:35:50.122Z,6.65
2024-05-09T03:38:17.919Z,6.82
2024-05-09T03:40:48.050Z,7.15
2024-05-09T03:43:16.373Z,6.60
2024-05-09T03:45:44.676Z,6.65
2024-05-09T03:48:12.716Z,6.20
2024-05-09T03:50:40.197Z,6.43
2024-05-09T03:53:11.518Z,6.05
2024-05-09T03:55:39.153Z,6.32
2024-05-09T03:58:12.936Z,6.40
2024-05-09T04:00:40.556Z,6.40
2024-05-09T04:03:11.141Z,5.82
2024-05-09T04:05:42.458Z,6.85
2024-05-09T04:08:11.380Z,6.75
2024-05-09T04:10:39.293Z,6.80
2024-05-09T04:13:06.927Z,6.22
2024-05-09T04:15:34.090Z,6.57
2024-05-09T04:18:02.476Z,6.28
2024-05-09T04:20:37.801Z,6.20
2024-05-09T04:23:12.249Z,6.97
2024-05-09T04:25:45.621Z,6.47
2024-05-09T04:28:14.457Z,6.32
2024-05-09T04:30:42.888Z,6.15
2024-05-09T04:33:13.158Z,6.65
2024-05-09T04:35:45.049Z,6.53
2024-05-09T04:38:14.649Z,7.10
2024-05-09T04:40:42.663Z,7.15
2024-05-09T04:43:19.665Z,6.10
2024-05-09T04:45:47.207Z,6.47
2024-05-09T04:48:15.080Z,6.65
2024-05-09T04:50:42.673Z,6.45
2024-05-09T04:53:16.628Z,7.40
2024-05-09T04:55:44.006Z,6.90
2024-05-09T04:58:11.970Z,6.63
2024-05-09T05:00:41.028Z,7.22
2024-05-09T05:03:14.310Z,5.68
2024-05-09T05:05:45.185Z,6.55
2024-05-09T05:08:18.608Z,6.28
2024-05-09T05:10:48.567Z,6.70
2024-05-09T05:13:20.040Z,7.45
2024-05-09T05:15:51.002Z,11.30
2024-05-09T05:18:19.097Z,10.98
2024-05-09T05:20:46.538Z,9.95
2024-05-09T05:23:20.913Z,7.75
2024-05-09T05:25:53.707Z,7.18
2024-05-09T05:28:22.186Z,6.65
2024-05-09T05:30:50.064Z,7.15
2024-05-09T05:33:19.249Z,7.82
2024-05-09T05:35:47.136Z,8.40
2024-05-09T05:38:15.195Z,7.55
2024-05-09T05:40:42.574Z,8.52
2024-05-09T05:43:18.089Z,7.88
2024-05-09T05:45:46.458Z,6.38
2024-05-09T05:48:18.122Z,8.05
2024-05-09T05:50:46.023Z,7.18
2024-05-09T05:53:13.841Z,7.70
2024-05-09T05:55:42.804Z,6.45
2024-05-09T05:58:15.019Z,7.10
2024-05-09T06:00:43.062Z,7.63
2024-05-09T06:03:13.710Z,7.47
2024-05-09T06:05:46.130Z,8.15
2024-05-09T06:08:14.029Z,7.53
2024-05-09T06:10:42.056Z,7.25
2024-05-09T06:13:14.003Z,7.50
2024-05-09T06:15:41.928Z,7.68
2024-05-09T06:18:11.257Z,7.00
2024-05-09T06:20:42.314Z,7.07
2024-05-09T06:23:11.326Z,7.45
2024-05-09T06:25:38.962Z,6.75
2024-05-09T06:28:06.996Z,7.28
2024-05-09T06:30:40.313Z,7.40
2024-05-09T06:33:13.242Z,7.18
2024-05-09T06:35:43.050Z,7.13
2024-05-09T06:38:11.060Z,7.53
2024-05-09T06:40:42.601Z,7.05
2024-05-09T06:43:13.288Z,7.53
2024-05-09T06:45:40.951Z,7.55
2024-05-09T06:48:09.835Z,7.35
2024-05-09T06:50:39.236Z,7.03
2024-05-09T06:53:08.700Z,7.05
2024-05-09T06:55:37.336Z,6.90
2024-05-09T06:58:12.035Z,6.90
2024-05-09T07:00:41.448Z,6.63
2024-05-09T07:03:17.159Z,7.25
2024-05-09T07:05:47.378Z,8.43
2024-05-09T07:08:16.807Z,6.00
2024-05-09T07:10:44.606Z,7.10
2024-05-09T07:13:14.799Z,7.20
2024-05-09T07:15:42.777Z,6.50
2024-05-09T07:18:17.424Z,7.15
2024-05-09T07:20:46.447Z,6.90
2024-05-09T07:23:14.286Z,6.88
2024-05-09T07:25:42.171Z,7.90
2024-05-09T07:28:16.133Z,7.18
2024-05-09T07:30:43.740Z,7.05
2024-05-09T07:33:23.300Z,6.85
2024-05-09T07:35:52.359Z,6.32
2024-05-09T07:38:20.227Z,6.05
2024-05-09T07:40:47.580Z,6.32
2024-05-09T07:43:16.189Z,8.52
2024-05-09T07:45:52.084Z,6.38
2024-05-09T07:52:38.486Z,6.30
2024-05-09T07:53:47.344Z,6.07
2024-05-09T07:56:19.410Z,6.70
2024-05-09T07:58:50.916Z,6.93
2024-05-09T08:01:18.734Z,6.88
2024-05-09T08:03:46.640Z,7.15
2024-05-09T08:06:14.164Z,6.28
2024-05-09T08:08:41.749Z,8.55
2024-05-09T08:11:08.905Z,7.50
2024-05-09T08:13:36.370Z,7.05
2024-05-09T08:16:03.767Z,6.53
2024-05-09T08:18:31.581Z,6.40
2024-05-09T08:20:59.317Z,5.90
2024-05-09T08:23:26.801Z,6.75
2024-05-09T08:25:54.037Z,6.20
2024-05-09T08:28:21.652Z,6.55
2024-05-09T08:30:49.062Z,5.85
2024-05-09T08:33:16.905Z,5.18
2024-05-09T08:35:44.102Z,5.78
2024-05-09T08:38:11.698Z,5.75
2024-05-09T08:40:39.279Z,6.05
2024-05-09T08:43:10.831Z,5.70
2024-05-09T08:45:43.778Z,5.60
2024-05-09T08:48:15.651Z,5.30
2024-05-09T08:50:45.672Z,6.88
2024-05-09T08:53:15.392Z,5.65
2024-05-09T08:55:44.747Z,4.85
2024-05-09T08:58:20.387Z,5.10
2024-05-09T09:00:49.177Z,4.72
2024-05-09T09:03:26.896Z,4.70
2024-05-09T09:06:05.796Z,4.40
2024-05-09T09:08:33.358Z,5.50
2024-05-09T09:11:01.136Z,4.47
2024-05-09T09:13:28.797Z,3.47
2024-05-09T09:15:59.018Z,3.42
2024-05-09T09:18:29.348Z,3.60
2024-05-09T09:20:56.675Z,3.20
2024-05-09T09:23:24.277Z,3.28
2024-05-09T09:25:52.088Z,3.40
2024-05-09T09:28:23.231Z,3.63
2024-05-09T09:30:50.449Z,3.53
2024-05-09T09:33:18.514Z,3.70
2024-05-09T09:35:45.848Z,3.10
2024-05-09T09:38:23.114Z,3.65
2024-05-09T09:40:51.232Z,3.53
2024-05-09T09:43:22.933Z,3.90
2024-05-09T09:45:53.446Z,3.22
2024-05-09T09:48:23.113Z,3.92
2024-05-09T09:50:56.774Z,3.63
2024-05-09T09:53:24.523Z,3.60
2024-05-09T09:55:53.115Z,3.80
2024-05-09T09:58:20.908Z,3.95
2024-05-09T10:00:55.643Z,3.83
2024-05-09T10:03:39.130Z,4.18
2024-05-09T10:06:09.010Z,3.60
2024-05-09T10:08:39.408Z,3.88
2024-05-09T10:11:08.253Z,3.40
2024-05-09T10:13:36.253Z,3.85
2024-05-09T10:16:21.170Z,3.38
2024-05-09T10:21:33.046Z,3.30
2024-05-09T10:24:04.020Z,3.33
2024-05-09T10:26:39.564Z,3.08
2024-05-09T10:29:18.839Z,3.65
2024-05-09T10:31:48.183Z,3.90
2024-05-09T10:34:24.092Z,3.92
2024-05-09T10:36:55.006Z,4.15
2024-05-09T10:39:23.116Z,3.65
2024-05-09T10:41:50.375Z,3.90
2024-05-09T10:44:18.660Z,3.65
2024-05-09T10:46:46.403Z,3.60
2024-05-09T10:49:17.415Z,3.95
2024-05-09T10:51:48.483Z,3.42
2024-05-09T10:54:16.632Z,3.33
2024-05-09T10:56:55.742Z,3.53
2024-05-09T10:59:23.206Z,3.58
2024-05-09T11:01:51.131Z,3.40
2024-05-09T11:04:19.805Z,3.38
2024-05-09T11:06:47.747Z,3.35
2024-05-09T11:09:18.061Z,3.47
2024-05-09T11:11:45.583Z,3.00
2024-05-09T11:14:13.862Z,3.55
2024-05-09T11:16:41.411Z,3.95
2024-05-09T11:19:14.463Z,3.33
2024-05-09T11:21:41.782Z,4.03
2024-05-09T11:24:11.456Z,3.35
2024-05-09T11:26:39.078Z,3.45
2024-05-09T11:29:06.620Z,2.97
2024-05-09T11:31:44.630Z,3.88
2024-05-09T11:34:12.170Z,3.70
2024-05-09T11:36:39.591Z,3.72
2024-05-09T11:39:07.291Z,3.50
2024-05-09T11:41:36.001Z,3.38
2024-05-09T11:44:03.440Z,3.70
2024-05-09T11:46:30.687Z,3.35
2024-05-09T11:48:58.291Z,3.60
2024-05-09T11:51:25.394Z,3.33
2024-05-09T11:53:52.866Z,3.65
2024-05-09T11:56:20.031Z,3.75
2024-05-09T11:58:47.550Z,3.92
2024-05-09T12:01:14.731Z,3.55
2024-05-09T12:03:42.339Z,4.05
2024-05-09T12:06:09.688Z,4.15
2024-05-09T12:08:37.454Z,3.83
2024-05-09T12:11:05.258Z,3.05
2024-05-09T12:13:33.040Z,3.60
2024-05-09T12:16:00.298Z,3.30
2024-05-09T12:18:27.884Z,3.58
2024-05-09T12:20:55.015Z,3.58
2024-05-09T12:23:22.095Z,3.70
2024-05-09T12:25:49.977Z,4.30
2024-05-09T12:28:17.284Z,3.75
2024-05-09T12:30:44.986Z,3.80
2024-05-09T12:33:13.520Z,4.85
2024-05-09T12:35:44.463Z,4.40
2024-05-09T12:38:15.450Z,3.60
2024-05-09T12:40:43.607Z,3.08
2024-05-09T12:43:11.681Z,3.58
2024-05-09T12:45:40.566Z,3.80
2024-05-09T12:48:12.429Z,3.97
2024-05-09T12:50:41.429Z,4.47
2024-05-09T12:53:08.868Z,3.85
2024-05-09T12:55:44.254Z,4.32
2024-05-09T12:58:24.170Z,4.40
2024-05-09T13:00:52.730Z,4.10
2024-05-09T13:03:20.463Z,3.22
2024-05-09T13:05:50.108Z,4.32
2024-05-09T13:08:17.458Z,3.38
2024-05-09T13:10:45.222Z,4.32
2024-05-09T13:13:12.946Z,3.58
2024-05-09T13:15:40.834Z,3.35
2024-05-09T13:18:09.902Z,2.85
2024-05-09T13:20:37.668Z,3.60
2024-05-09T13:23:07.931Z,3.30
2024-05-09T13:25:38.044Z,3.60
2024-05-09T13:28:07.530Z,3.58
2024-05-09T13:30:40.407Z,3.83
2024-05-09T13:33:14.262Z,4.55
2024-05-09T13:35:47.182Z,3.42
2024-05-09T13:38:20.023Z,3.60
2024-05-09T13:40:49.032Z,3.50
2024-05-09T13:43:17.613Z,4.63
2024-05-09T13:45:45.851Z,4.50
2024-05-09T13:48:13.383Z,3.65
2024-05-09T13:50:41.370Z,3.90
2024-05-09T13:53:09.108Z,4.07
2024-05-09T13:55:40.292Z,4.15
2024-05-09T13:58:09.591Z,4.35
2024-05-09T14:00:45.931Z,3.67
2024-05-09T14:03:18.743Z,4.03
2024-05-09T14:05:48.252Z,3.85
2024-05-09T14:08:17.922Z,4.25
2024-05-09T14:10:47.264Z,3.85
2024-05-09T14:13:15.191Z,3.75
2024-05-09T14:15:42.925Z,3.45
2024-05-09T14:18:13.200Z,3.33
2024-05-09T14:20:42.922Z,3.90
2024-05-09T14:23:10.955Z,3.50
2024-05-09T14:25:42.653Z,3.65
2024-05-09T14:28:12.528Z,3.90
2024-05-09T14:30:41.636Z,4.00
2024-05-09T14:33:09.585Z,4.60
2024-05-09T14:35:38.841Z,3.40
2024-05-09T14:38:08.542Z,3.88
2024-05-09T14:40:42.243Z,3.90
2024-05-09T14:43:15.885Z,3.65
2024-05-09T14:45:45.220Z,3.50
2024-05-09T14:48:15.688Z,3.50
2024-05-09T14:50:43.763Z,3.88
2024-05-09T14:53:13.624Z,3.33
2024-05-09T14:55:43.327Z,3.47
2024-05-09T14:58:12.667Z,3.40
2024-05-09T15:00:46.712Z,4.55
2024-05-09T15:03:21.095Z,4.20
2024-05-09T15:05:51.079Z,3.88
2024-05-09T15:08:19.899Z,3.88
2024-05-09T15:10:50.072Z,4.47
2024-05-09T15:13:18.722Z,3.85
2024-05-09T15:15:46.830Z,3.95
2024-05-09T15:18:15.337Z,4.20
2024-05-09T15:20:44.090Z,3.88
2024-05-09T15:23:11.420Z,3.55
2024-05-09T15:25:38.925Z,3.58
2024-05-09T15:28:08.125Z,3.85
2024-05-09T15:30:36.593Z,4.28
2024-05-09T15:33:04.736Z,3.75
2024-05-09T15:35:33.939Z,3.38
2024-05-09T15:38:05.222Z,3.80
2024-05-09T15:40:39.539Z,3.05
2024-05-09T15:43:10.529Z,3.30
2024-05-09T15:45:40.758Z,2.80
2024-05-09T15:48:09.993Z,3.08
2024-05-09T15:50:41.010Z,3.03
2024-05-09T15:53:12.040Z,3.38
2024-05-09T15:55:41.531Z,3.10
2024-05-09T15:58:09.754Z,3.05
2024-05-09T16:00:41.439Z,3.58
2024-05-09T16:03:12.414Z,3.67
2024-05-09T16:05:43.288Z,3.03
2024-05-09T16:08:12.752Z,2.67
2024-05-09T16:10:44.589Z,3.60
2024-05-09T16:13:13.153Z,3.17
2024-05-09T16:15:41.281Z,2.45
2024-05-09T16:18:08.720Z,3.53
2024-05-09T16:20:40.290Z,3.03
2024-05-09T16:23:10.113Z,2.88
2024-05-09T16:25:39.075Z,2.65
2024-05-09T16:28:09.898Z,2.95
2024-05-09T16:30:40.085Z,2.80
2024-05-09T16:33:08.440Z,3.25
2024-05-09T16:35:37.492Z,2.53
2024-05-09T16:38:06.520Z,3.75
2024-05-09T16:40:38.838Z,2.45
2024-05-09T16:43:10.357Z,3.65
2024-05-09T16:45:45.002Z,3.50
2024-05-09T16:48:14.130Z,2.80
2024-05-09T16:50:42.017Z,4.18
2024-05-09T16:53:09.261Z,2.70
2024-05-09T16:55:36.996Z,2.75
2024-05-09T16:58:06.630Z,2.80
2024-05-09T17:00:40.983Z,2.78
2024-05-09T17:03:14.133Z,6.53
2024-05-09T17:05:44.064Z,4.20
2024-05-09T17:08:11.688Z,3.65
2024-05-09T17:10:39.263Z,2.90
2024-05-09T17:13:07.899Z,3.15
2024-05-09T17:15:37.608Z,2.53
2024-05-09T17:18:07.706Z,2.97
2024-05-09T17:20:37.491Z,2.75
2024-05-09T17:23:14.848Z,2.40
2024-05-09T17:25:43.215Z,2.92
2024-05-09T17:28:12.190Z,2.45
2024-05-09T17:30:42.205Z,2.42
2024-05-09T17:33:11.633Z,2.60
2024-05-09T17:35:40.544Z,2.38
2024-05-09T17:38:08.681Z,2.08
2024-05-09T17:40:38.096Z,2.60
2024-05-09T17:43:09.429Z,2.90
2024-05-09T17:45:40.511Z,2.72
2024-05-09T17:48:12.526Z,2.20
2024-05-09T17:50:41.605Z,2.85
2024-05-09T17:53:10.466Z,2.50
2024-05-09T17:55:39.237Z,2.17
2024-05-09T17:58:06.801Z,2.70
2024-05-09T18:00:39.432Z,2.88
2024-05-09T18:03:13.793Z,2.85
2024-05-09T18:05:44.521Z,2.67
2024-05-09T18:08:12.978Z,3.00
2024-05-09T18:10:41.889Z,2.60
2024-05-09T18:13:10.939Z,2.35
2024-05-09T18:15:42.571Z,2.55
2024-05-09T18:18:10.823Z,2.50
2024-05-09T18:20:43.885Z,2.90
2024-05-09T18:23:16.256Z,2.53
2024-05-09T18:25:46.544Z,2.75
2024-05-09T18:28:14.844Z,2.70
2024-05-09T18:30:43.247Z,2.47
2024-05-09T18:33:11.552Z,2.40
2024-05-09T18:35:43.971Z,3.08
2024-05-09T18:38:11.295Z,2.53
2024-05-09T18:40:40.233Z,3.17
2024-05-09T18:43:09.370Z,3.22
2024-05-09T18:45:38.200Z,2.95
2024-05-09T18:48:08.726Z,3.45
2024-05-09T18:50:39.634Z,3.17
2024-05-09T18:53:11.588Z,3.10
2024-05-09T18:55:40.315Z,2.70
2024-05-09T18:58:07.979Z,2.70
2024-05-09T19:00:38.690Z,3.20
2024-05-09T19:03:12.378Z,2.63
2024-05-09T19:05:45.901Z,3.42
2024-05-09T19:08:15.433Z,2.97
2024-05-09T19:10:43.006Z,3.38
2024-05-09T19:13:13.255Z,3.30
2024-05-09T19:15:43.103Z,4.03
2024-05-09T19:18:14.248Z,4.13
2024-05-09T19:20:42.454Z,4.40
2024-05-09T19:23:11.644Z,3.78
2024-05-09T19:25:39.135Z,3.65
2024-05-09T19:28:07.063Z,3.08
2024-05-09T19:30:39.803Z,3.15
2024-05-09T19:33:13.798Z,3.53
2024-05-09T19:35:42.997Z,3.28
2024-05-09T19:38:12.176Z,3.35
2024-05-09T19:40:39.371Z,2.95
2024-05-09T19:43:07.190Z,4.57
2024-05-09T19:45:35.626Z,3.63
2024-05-09T19:48:05.794Z,3.38
2024-05-09T19:50:41.275Z,2.67
2024-05-09T19:53:12.958Z,3.00
2024-05-09T19:55:43.531Z,2.65
2024-05-09T19:58:12.308Z,2.85
2024-05-09T20:00:42.270Z,5.70
2024-05-09T20:03:13.291Z,6.95
2024-05-09T20:05:44.666Z,3.72
2024-05-09T20:08:12.868Z,3.40
2024-05-09T20:10:40.068Z,3.95
2024-05-09T20:13:08.398Z,3.40
2024-05-09T20:15:37.820Z,3.95
2024-05-09T20:18:06.771Z,3.47
2024-05-09T20:20:39.601Z,3.83
2024-05-09T20:23:14.259Z,4.07
2024-05-09T20:25:42.433Z,3.28
2024-05-09T20:28:10.880Z,3.92
2024-05-09T20:30:38.530Z,4.28
2024-05-09T20:33:07.788Z,3.60
2024-05-09T20:35:36.496Z,4.07
2024-05-09T20:38:04.823Z,4.00
2024-05-09T20:40:36.753Z,3.92
2024-05-09T20:43:10.798Z,3.60
2024-05-09T20:45:38.789Z,3.97
2024-05-09T20:48:08.203Z,14.20
2024-05-09T20:50:39.755Z,7.05
2024-05-09T20:53:12.907Z,4.25
2024-05-09T20:55:41.212Z,3.75
2024-05-09T20:58:10.291Z,4.25
2024-05-09T21:00:41.330Z,3.30
2024-05-09T21:03:13.790Z,4.10
2024-05-09T21:05:42.259Z,3.70
2024-05-09T21:08:10.301Z,4.22
2024-05-09T21:10:38.055Z,3.58
2024-05-09T21:13:06.823Z,3.63
2024-05-09T21:15:35.322Z,3.30
2024-05-09T21:18:04.132Z,3.65
2024-05-09T21:20:33.433Z,4.32
2024-05-09T21:23:02.259Z,3.70
2024-05-09T21:25:30.109Z,3.95
2024-05-09T21:27:58.128Z,3.58
2024-05-09T21:32:55.899Z,3.05
2024-05-09T21:35:23.019Z,3.22
2024-05-09T21:37:50.513Z,3.78
2024-05-09T21:40:27.008Z,4.82
2024-05-09T21:43:01.370Z,4.07
2024-05-09T21:45:28.693Z,3.88
2024-05-09T21:47:56.384Z,3.42
2024-05-09T21:50:31.781Z,3.33
2024-05-09T21:53:07.103Z,3.47
2024-05-09T21:55:34.567Z,4.28
2024-05-09T21:58:02.767Z,3.60
2024-05-09T22:00:36.130Z,3.00
2024-05-09T22:03:10.606Z,3.58
2024-05-09T22:05:42.152Z,3.75
2024-05-09T22:08:10.996Z,3.33
2024-05-09T22:10:38.301Z,4.47
2024-05-09T22:13:06.992Z,3.55
2024-05-09T22:15:40.105Z,3.65
2024-05-09T22:18:10.346Z,4.05
2024-05-09T22:20:45.337Z,3.70
2024-05-09T22:23:14.902Z,3.72
2024-05-09T22:25:42.501Z,4.45
2024-05-09T22:28:10.337Z,4.38
2024-05-09T22:30:39.699Z,4.50
2024-05-09T22:33:10.141Z,5.38
2024-05-09T22:35:39.346Z,5.28
2024-05-09T22:38:07.009Z,4.65
2024-05-09T22:40:44.912Z,4.47
2024-05-09T22:43:24.278Z,4.00
2024-05-09T22:45:55.932Z,4.60
2024-05-09T22:48:25.186Z,4.57
2024-05-09T22:50:54.468Z,4.88
2024-05-09T22:53:25.627Z,4.47
2024-05-09T22:55:53.460Z,4.78
2024-05-09T22:58:21.562Z,4.07
2024-05-09T23:00:48.995Z,4.20
2024-05-09T23:03:16.858Z,4.20
2024-05-09T23:05:44.482Z,4.38
2024-05-09T23:08:11.969Z,4.50
2024-05-09T23:10:39.268Z,4.45
2024-05-09T23:13:07.997Z,4.97
2024-05-09T23:15:38.440Z,4.80
2024-05-09T23:18:07.461Z,4.70
2024-05-09T23:20:38.566Z,4.82
2024-05-09T23:23:09.805Z,4.65
2024-05-09T23:25:38.124Z,4.50
2024-05-09T23:28:06.312Z,4.72
2024-05-09T23:30:38.348Z,4.80
2024-05-09T23:33:11.953Z,4.63
2024-05-09T23:35:41.925Z,4.32
2024-05-09T23:38:09.835Z,4.07
2024-05-09T23:40:40.011Z,4.47
2024-05-09T23:43:11.843Z,5.15
2024-05-09T23:45:39.966Z,4.72
2024-05-09T23:48:08.663Z,4.82
2024-05-09T23:50:38.262Z,4.38
2024-05-09T23:53:08.966Z,4.60
2024-05-09T23:55:37.666Z,4.57
2024-05-09T23:58:06.833Z,4.75
